Time;durP1;ratioP1;P1;durP2;ratioP2;P2;SDS_P1;SDS_P2;PMS_P1;PMS_P2;Temp;Humidity;BMP_temperature;BMP_pressure;BME280_temperature;BME280_humidity;BME280_pressure;Samples;Min_cycle;Max_cycle;Signal;HPM_P1;HPM_P2
2023/04/17 00:02:00;;;;;;;1.30;1.20;;;;;;;;;;6305044;28;20239;-67
2023/04/17 00:05:01;;;;;;;1.27;1.10;;;;;;;;;;6297986;28;20189;-67
2023/04/17 00:08:02;;;;;;;1.40;1.30;;;;;;;;;;6274423;28;20212;-67
2023/04/17 00:11:03;;;;;;;1.50;1.40;;;;;;;;;;6298110;28;20187;-67
2023/04/17 00:14:04;;;;;;;2.23;1.27;;;;;;;;;;6290485;28;20192;-67
2023/04/17 00:17:06;;;;;;;1.33;1.23;;;;;;;;;;6286744;28;20208;-67
2023/04/17 00:20:10;;;;;;;1.20;1.10;;;;;;;;;;6307053;28;20199;-67
2023/04/17 00:23:11;;;;;;;1.10;1.10;;;;;;;;;;6320121;28;20186;-68
2023/04/17 00:26:12;;;;;;;1.73;1.30;;;;;;;;;;6298047;28;20206;-67
2023/04/17 00:29:13;;;;;;;2.40;1.30;;;;;;;;;;6315969;28;20196;-67
2023/04/17 00:32:14;;;;;;;1.07;1.00;;;;;;;;;;6298151;28;20188;-67
2023/04/17 00:35:15;;;;;;;1.20;1.10;;;;;;;;;;6298235;28;20247;-67
2023/04/17 00:38:17;;;;;;;1.20;1.10;;;;;;;;;;6287366;28;20197;-67
2023/04/17 00:41:18;;;;;;;1.30;1.20;;;;;;;;;;6290412;28;20276;-68
2023/04/17 00:44:19;;;;;;;0.93;0.93;;;;;;;;;;6280079;28;20199;-67
2023/04/17 00:47:21;;;;;;;1.40;1.30;;;;;;;;;;6277958;28;20190;-67
2023/04/17 00:50:22;;;;;;;1.27;1.17;;;;;;;;;;6301431;28;20200;-67
2023/04/17 00:53:23;;;;;;;0.93;0.93;;;;;;;;;;6290698;28;20196;-67
2023/04/17 00:56:24;;;;;;;1.40;1.30;;;;;;;;;;6292088;28;20216;-67
2023/04/17 00:59:26;;;;;;;1.13;1.07;;;;;;;;;;6311182;28;20200;-68
2023/04/17 01:02:27;;;;;;;2.73;1.20;;;;;;;;;;6322912;28;20184;-68
2023/04/17 01:05:29;;;;;;;1.50;1.40;;;;;;;;;;6316741;28;20185;-67
2023/04/17 01:08:33;;;;;;;1.30;1.20;;;;;;;;;;6315495;28;20267;-67
2023/04/17 01:11:35;;;;;;;1.40;1.30;;;;;;;;;;6305451;28;20189;-67
2023/04/17 01:14:36;;;;;;;1.70;1.60;;;;;;;;;;6284700;28;20197;-67
2023/04/17 01:17:37;;;;;;;1.20;1.10;;;;;;;;;;6288164;28;20208;-67
2023/04/17 01:20:38;;;;;;;1.40;1.30;;;;;;;;;;6281588;28;20271;-67
2023/04/17 01:23:45;;;;;;;1.50;1.40;;;;;;;;;;6281003;28;20192;-67
2023/04/17 01:26:46;;;;;;;1.60;1.50;;;;;;;;;;6313542;28;20189;-67
2023/04/17 01:29:48;;;;;;;1.47;1.37;;;;;;;;;;6279915;28;20188;-67
2023/04/17 01:32:49;;;;;;;1.50;1.40;;;;;;;;;;6282668;28;20228;-67
2023/04/17 01:35:50;;;;;;;1.40;1.30;;;;;;;;;;6291101;28;20340;-67
2023/04/17 01:38:51;;;;;;;1.47;1.30;;;;;;;;;;6310322;28;20198;-68
2023/04/17 01:41:53;;;;;;;1.37;1.27;;;;;;;;;;6283606;28;20196;-67
2023/04/17 01:44:54;;;;;;;1.33;1.23;;;;;;;;;;6274335;28;20190;-67
2023/04/17 01:47:55;;;;;;;1.30;1.20;;;;;;;;;;6303628;28;20246;-67
2023/04/17 01:50:56;;;;;;;1.13;1.10;;;;;;;;;;6294538;28;20231;-67
2023/04/17 01:53:57;;;;;;;1.67;1.30;;;;;;;;;;6297622;28;20192;-68
2023/04/17 01:56:58;;;;;;;1.27;1.17;;;;;;;;;;6297378;28;20213;-68
2023/04/17 01:59:59;;;;;;;1.40;1.30;;;;;;;;;;6304120;28;20189;-67
2023/04/17 02:03:00;;;;;;;0.90;0.90;;;;;;;;;;6322388;28;20220;-67
2023/04/17 02:06:01;;;;;;;1.10;1.00;;;;;;;;;;6303424;28;20227;-67
2023/04/17 02:09:02;;;;;;;1.20;1.10;;;;;;;;;;6296942;28;20190;-67
2023/04/17 02:12:03;;;;;;;1.10;1.00;;;;;;;;;;6309500;28;20201;-67
2023/04/17 02:15:05;;;;;;;1.40;1.30;;;;;;;;;;6317617;28;20212;-67
2023/04/17 02:18:06;;;;;;;0.93;0.93;;;;;;;;;;6306921;28;20184;-67
2023/04/17 02:21:08;;;;;;;1.07;1.03;;;;;;;;;;6290273;28;20188;-67
2023/04/17 02:24:09;;;;;;;1.03;1.00;;;;;;;;;;6297450;28;20185;-67
2023/04/17 02:27:10;;;;;;;1.00;1.00;;;;;;;;;;6298241;28;20188;-67
2023/04/17 02:30:12;;;;;;;1.10;1.03;;;;;;;;;;6308063;28;20197;-67
2023/04/17 02:33:13;;;;;;;1.60;1.10;;;;;;;;;;6297578;28;20236;-67
2023/04/17 02:36:15;;;;;;;0.90;0.90;;;;;;;;;;6280718;28;20221;-67
2023/04/17 02:39:16;;;;;;;1.17;1.03;;;;;;;;;;6292283;28;20224;-67
2023/04/17 02:42:17;;;;;;;1.20;1.10;;;;;;;;;;6276886;28;20646;-67
2023/04/17 02:45:18;;;;;;;0.80;0.80;;;;;;;;;;6312748;28;20224;-67
2023/04/17 02:48:19;;;;;;;1.03;0.83;;;;;;;;;;6310363;28;20250;-67
2023/04/17 02:51:20;;;;;;;1.00;1.00;;;;;;;;;;6304492;28;20192;-67
2023/04/17 02:54:21;;;;;;;1.63;0.90;;;;;;;;;;6300983;28;20223;-67
2023/04/17 02:57:25;;;;;;;1.10;1.00;;;;;;;;;;6284856;28;20219;-67
2023/04/17 03:00:26;;;;;;;1.10;1.00;;;;;;;;;;6305801;28;20196;-67
2023/04/17 03:03:29;;;;;;;1.27;1.17;;;;;;;;;;6300142;28;20256;-67
2023/04/17 03:06:30;;;;;;;0.80;0.80;;;;;;;;;;6289251;28;20202;-67
2023/04/17 03:09:33;;;;;;;2.67;1.53;;;;;;;;;;6300735;28;20219;-68
2023/04/17 03:12:34;;;;;;;0.83;0.83;;;;;;;;;;6313194;28;20221;-67
2023/04/17 03:15:35;;;;;;;1.10;1.00;;;;;;;;;;6292592;28;20270;-67
2023/04/17 03:18:39;;;;;;;2.60;1.10;;;;;;;;;;6283644;28;20192;-67
2023/04/17 03:21:40;;;;;;;0.90;0.90;;;;;;;;;;6309359;28;20191;-68
2023/04/17 03:24:41;;;;;;;0.80;0.80;;;;;;;;;;6279234;28;20192;-67
2023/04/17 03:27:43;;;;;;;1.27;1.17;;;;;;;;;;6298249;28;20207;-67
2023/04/17 03:30:44;;;;;;;1.00;0.90;;;;;;;;;;6267639;28;20220;-67
2023/04/17 03:33:45;;;;;;;1.73;1.10;;;;;;;;;;6303592;28;20244;-68
2023/04/17 03:36:47;;;;;;;1.53;1.03;;;;;;;;;;6297711;28;20217;-69
2023/04/17 03:39:48;;;;;;;0.83;0.83;;;;;;;;;;6322714;28;20185;-69
2023/04/17 03:42:49;;;;;;;1.17;1.10;;;;;;;;;;6300021;28;20188;-69
2023/04/17 03:45:50;;;;;;;1.13;1.10;;;;;;;;;;6287583;28;20257;-68
2023/04/17 03:48:51;;;;;;;1.33;1.23;;;;;;;;;;6290826;28;20193;-68
2023/04/17 03:51:52;;;;;;;2.20;1.00;;;;;;;;;;6314849;28;20195;-69
2023/04/17 03:54:53;;;;;;;1.00;1.00;;;;;;;;;;6291832;28;20198;-69
2023/04/17 03:57:54;;;;;;;1.20;1.10;;;;;;;;;;6289305;28;20248;-68
2023/04/17 04:00:57;;;;;;;1.00;1.00;;;;;;;;;;6317176;28;20257;-68
2023/04/17 04:03:58;;;;;;;1.07;1.00;;;;;;;;;;6286944;28;20193;-68
2023/04/17 04:07:02;;;;;;;1.00;1.00;;;;;;;;;;6283305;28;20193;-68
2023/04/17 04:10:03;;;;;;;1.40;1.13;;;;;;;;;;6291069;28;20199;-69
2023/04/17 04:13:04;;;;;;;1.20;1.10;;;;;;;;;;6294144;28;20216;-68
2023/04/17 04:16:05;;;;;;;1.20;1.10;;;;;;;;;;6319467;28;20217;-69
2023/04/17 04:19:07;;;;;;;1.63;1.20;;;;;;;;;;6287879;28;20186;-68
2023/04/17 04:22:09;;;;;;;1.10;1.00;;;;;;;;;;6281633;28;20189;-67
2023/04/17 04:25:11;;;;;;;1.23;1.13;;;;;;;;;;6290258;28;20276;-65
2023/04/17 04:28:13;;;;;;;1.23;1.00;;;;;;;;;;6295742;28;20256;-66
2023/04/17 04:31:17;;;;;;;1.30;1.20;;;;;;;;;;6313699;28;20212;-66
2023/04/17 04:34:18;;;;;;;2.10;1.70;;;;;;;;;;6291227;28;20237;-66
2023/04/17 04:37:20;;;;;;;1.70;1.20;;;;;;;;;;6301623;28;20263;-66
2023/04/17 04:40:23;;;;;;;1.00;1.00;;;;;;;;;;6291757;28;20193;-66
2023/04/17 04:43:24;;;;;;;1.20;1.10;;;;;;;;;;6285183;28;20195;-66
2023/04/17 04:46:25;;;;;;;1.43;1.20;;;;;;;;;;6294719;28;20234;-67
2023/04/17 04:49:26;;;;;;;2.73;1.00;;;;;;;;;;6286575;28;20197;-66
2023/04/17 04:52:27;;;;;;;1.27;1.10;;;;;;;;;;6298267;28;20260;-66
2023/04/17 04:55:29;;;;;;;1.47;1.30;;;;;;;;;;6277225;28;20209;-66
2023/04/17 04:58:30;;;;;;;1.30;1.20;;;;;;;;;;6314332;28;20191;-66
2023/04/17 05:01:31;;;;;;;1.83;1.17;;;;;;;;;;6313045;28;20197;-66
2023/04/17 05:04:32;;;;;;;1.27;1.17;;;;;;;;;;6300511;28;20189;-66
2023/04/17 05:07:33;;;;;;;1.20;1.10;;;;;;;;;;6285434;28;20185;-65
2023/04/17 05:10:34;;;;;;;2.20;1.10;;;;;;;;;;6285925;28;20192;-66
2023/04/17 05:13:35;;;;;;;1.00;1.00;;;;;;;;;;6277775;28;20211;-66
2023/04/17 05:16:36;;;;;;;2.90;1.23;;;;;;;;;;6306134;28;20209;-67
2023/04/17 05:19:37;;;;;;;2.30;1.07;;;;;;;;;;6285235;28;20177;-66
2023/04/17 05:22:39;;;;;;;1.20;1.10;;;;;;;;;;6294397;28;20220;-66
2023/04/17 05:25:40;;;;;;;1.50;1.30;;;;;;;;;;6305168;28;20192;-66
2023/04/17 05:28:44;;;;;;;2.17;1.47;;;;;;;;;;6306466;28;20189;-68
2023/04/17 05:31:45;;;;;;;1.17;1.10;;;;;;;;;;6303168;28;20222;-68
2023/04/17 05:34:46;;;;;;;1.47;1.30;;;;;;;;;;6310116;28;20231;-67
2023/04/17 05:37:47;;;;;;;2.20;1.50;;;;;;;;;;6296683;28;20228;-66
2023/04/17 05:40:48;;;;;;;1.20;1.10;;;;;;;;;;6291953;28;20264;-67
2023/04/17 05:43:49;;;;;;;1.60;1.50;;;;;;;;;;6303911;28;20497;-67
2023/04/17 05:46:51;;;;;;;1.63;1.40;;;;;;;;;;6274660;28;20190;-66
2023/04/17 05:49:56;;;;;;;2.37;1.10;;;;;;;;;;6316819;28;20200;-67
2023/04/17 05:52:57;;;;;;;1.40;1.30;;;;;;;;;;6298129;28;20285;-67
2023/04/17 05:55:58;;;;;;;2.33;1.57;;;;;;;;;;6281849;28;20304;-67
2023/04/17 05:58:59;;;;;;;3.33;1.30;;;;;;;;;;6314406;28;20242;-67
2023/04/17 06:02:00;;;;;;;1.50;1.40;;;;;;;;;;6278374;28;20186;-67
2023/04/17 06:05:03;;;;;;;1.87;1.50;;;;;;;;;;6290591;28;20584;-67
2023/04/17 06:08:05;;;;;;;2.07;1.60;;;;;;;;;;6278022;28;20193;-66
2023/04/17 06:11:06;;;;;;;1.60;1.50;;;;;;;;;;6272635;28;20216;-67
2023/04/17 06:14:07;;;;;;;1.70;1.60;;;;;;;;;;6276443;28;20227;-66
2023/04/17 06:17:08;;;;;;;1.57;1.47;;;;;;;;;;6287723;28;20307;-66
2023/04/17 06:20:10;;;;;;;2.90;1.40;;;;;;;;;;6303319;28;20196;-67
2023/04/17 06:23:11;;;;;;;2.83;1.50;;;;;;;;;;6316466;28;20185;-67
2023/04/17 06:26:12;;;;;;;1.70;1.57;;;;;;;;;;6281925;28;20200;-67
2023/04/17 06:29:14;;;;;;;1.67;1.57;;;;;;;;;;6302850;28;20235;-67
2023/04/17 06:32:15;;;;;;;1.80;1.43;;;;;;;;;;6316733;28;20257;-67
2023/04/17 06:35:16;;;;;;;4.90;1.63;;;;;;;;;;6308702;28;20231;-67
2023/04/17 06:38:17;;;;;;;4.17;2.00;;;;;;;;;;6302663;28;20188;-66
2023/04/17 06:41:18;;;;;;;1.40;1.30;;;;;;;;;;6301081;28;20199;-67
2023/04/17 06:44:19;;;;;;;1.70;1.60;;;;;;;;;;6296758;28;20178;-67
2023/04/17 06:47:20;;;;;;;1.47;1.30;;;;;;;;;;6307183;28;20201;-67
2023/04/17 06:50:21;;;;;;;1.53;1.43;;;;;;;;;;6310140;28;20309;-67
2023/04/17 06:53:22;;;;;;;1.43;1.33;;;;;;;;;;6307032;28;20204;-65
2023/04/17 06:56:24;;;;;;;1.50;1.30;;;;;;;;;;6283162;28;20212;-66
2023/04/17 06:59:25;;;;;;;1.60;1.50;;;;;;;;;;6283092;28;20280;-66
2023/04/17 07:02:26;;;;;;;1.70;1.60;;;;;;;;;;6296278;28;20193;-66
2023/04/17 07:05:27;;;;;;;1.53;1.43;;;;;;;;;;6283796;28;20184;-66
2023/04/17 07:08:28;;;;;;;1.50;1.40;;;;;;;;;;6299249;28;20287;-66
2023/04/17 07:11:29;;;;;;;1.67;1.57;;;;;;;;;;6297710;28;20188;-66
2023/04/17 07:14:31;;;;;;;1.73;1.33;;;;;;;;;;6302010;28;20217;-67
2023/04/17 07:17:32;;;;;;;1.67;1.33;;;;;;;;;;6299092;28;20223;-67
2023/04/17 07:20:33;;;;;;;1.57;1.27;;;;;;;;;;6283336;28;20230;-67
2023/04/17 07:23:34;;;;;;;1.73;1.63;;;;;;;;;;6282788;28;20193;-67
2023/04/17 07:26:36;;;;;;;1.50;1.30;;;;;;;;;;6294862;28;20195;-66
2023/04/17 07:29:37;;;;;;;1.53;1.40;;;;;;;;;;6304765;28;20201;-67
2023/04/17 07:32:38;;;;;;;1.87;1.57;;;;;;;;;;6318864;28;20192;-67
2023/04/17 07:35:39;;;;;;;1.70;1.33;;;;;;;;;;6296621;28;20234;-66
2023/04/17 07:38:41;;;;;;;1.80;1.40;;;;;;;;;;6329297;28;20192;-67
2023/04/17 07:41:42;;;;;;;1.67;1.57;;;;;;;;;;6276847;28;20194;-67
2023/04/17 07:44:43;;;;;;;1.97;1.70;;;;;;;;;;6296494;28;20345;-66
2023/04/17 07:47:44;;;;;;;1.73;1.53;;;;;;;;;;6280886;28;20215;-67
2023/04/17 07:50:45;;;;;;;1.17;1.07;;;;;;;;;;6286316;28;20317;-67
2023/04/17 07:53:46;;;;;;;3.37;1.63;;;;;;;;;;6300087;28;20334;-67
2023/04/17 07:56:48;;;;;;;2.23;1.70;;;;;;;;;;6272897;28;20217;-67
2023/04/17 07:59:49;;;;;;;1.70;1.60;;;;;;;;;;6308659;28;20186;-67
2023/04/17 08:02:50;;;;;;;1.20;1.10;;;;;;;;;;6317671;28;20281;-67
2023/04/17 08:05:52;;;;;;;2.53;1.70;;;;;;;;;;6279580;28;20276;-67
2023/04/17 08:08:53;;;;;;;1.70;1.60;;;;;;;;;;6282628;28;20204;-67
2023/04/17 08:11:55;;;;;;;1.80;1.70;;;;;;;;;;6297939;28;20215;-67
2023/04/17 08:14:56;;;;;;;1.77;1.60;;;;;;;;;;6277131;28;20201;-66
2023/04/17 08:17:57;;;;;;;2.00;1.50;;;;;;;;;;6303896;28;20223;-66
2023/04/17 08:20:58;;;;;;;1.50;1.40;;;;;;;;;;6291037;28;20190;-67
2023/04/17 08:23:59;;;;;;;1.97;1.87;;;;;;;;;;6297068;28;20181;-66
2023/04/17 08:27:01;;;;;;;1.27;1.17;;;;;;;;;;6308399;28;20200;-68
2023/04/17 08:30:03;;;;;;;1.50;1.40;;;;;;;;;;6309537;28;20193;-67
2023/04/17 08:33:04;;;;;;;1.70;1.30;;;;;;;;;;6324352;28;20217;-66
2023/04/17 08:36:08;;;;;;;1.60;1.50;;;;;;;;;;6287591;28;20221;-67
2023/04/17 08:39:10;;;;;;;1.53;1.43;;;;;;;;;;6290804;28;20220;-67
2023/04/17 08:42:11;;;;;;;1.87;1.40;;;;;;;;;;6286483;28;20185;-66
2023/04/17 08:45:13;;;;;;;2.13;1.90;;;;;;;;;;6294470;28;20228;-67
2023/04/17 08:48:14;;;;;;;1.70;1.60;;;;;;;;;;6316116;28;20181;-67
2023/04/17 08:51:15;;;;;;;2.20;2.00;;;;;;;;;;6300968;28;20185;-67
2023/04/17 08:54:18;;;;;;;3.20;1.73;;;;;;;;;;6313121;28;20192;-66
2023/04/17 08:57:19;;;;;;;1.60;1.50;;;;;;;;;;6295702;28;20305;-66
2023/04/17 09:00:24;;;;;;;6.13;1.73;;;;;;;;;;6307087;28;20199;-67
2023/04/17 09:03:38;;;;;;;2.90;1.93;;;;;;;;;;6297905;28;20243;-67
2023/04/17 09:06:53;;;;;;;1.87;1.77;;;;;;;;;;6305774;28;20201;-67
2023/04/17 09:09:55;;;;;;;2.00;1.90;;;;;;;;;;6302652;28;20197;-66
2023/04/17 09:13:00;;;;;;;2.20;2.00;;;;;;;;;;6323860;28;20192;-67
2023/04/17 09:16:08;;;;;;;2.20;2.00;;;;;;;;;;6299383;28;20214;-67
2023/04/17 09:19:09;;;;;;;3.57;2.67;;;;;;;;;;6307603;28;20228;-67
2023/04/17 09:22:20;;;;;;;3.70;2.27;;;;;;;;;;6304037;28;20221;-66
2023/04/17 09:25:22;;;;;;;2.53;2.03;;;;;;;;;;6296119;28;20277;-67
2023/04/17 09:28:23;;;;;;;2.50;2.30;;;;;;;;;;6279161;28;20221;-67
2023/04/17 09:31:25;;;;;;;2.80;2.60;;;;;;;;;;6297081;28;20234;-66
2023/04/17 09:34:27;;;;;;;3.93;2.47;;;;;;;;;;6290329;28;20234;-67
2023/04/17 09:37:48;;;;;;;2.90;2.30;;;;;;;;;;6289192;28;20286;-67
2023/04/17 09:40:51;;;;;;;3.33;3.00;;;;;;;;;;6289008;28;20203;-68
2023/04/17 09:43:53;;;;;;;3.17;2.87;;;;;;;;;;6304691;28;20191;-67
2023/04/17 09:46:55;;;;;;;3.10;2.77;;;;;;;;;;6305053;28;20206;-66
2023/04/17 09:49:56;;;;;;;3.00;2.80;;;;;;;;;;6287993;28;20277;-67
2023/04/17 09:52:57;;;;;;;5.70;4.67;;;;;;;;;;6285185;28;20289;-67
2023/04/17 09:56:00;;;;;;;4.03;3.03;;;;;;;;;;6299438;28;20217;-67
2023/04/17 09:59:05;;;;;;;3.90;3.60;;;;;;;;;;6298225;28;20204;-67
2023/04/17 10:02:11;;;;;;;4.30;3.93;;;;;;;;;;6317282;28;20185;-67
2023/04/17 10:05:12;;;;;;;5.17;3.30;;;;;;;;;;6309478;28;20186;-67
2023/04/17 10:08:13;;;;;;;4.00;3.60;;;;;;;;;;6299837;28;20205;-67
2023/04/17 10:11:15;;;;;;;3.97;3.57;;;;;;;;;;6304849;28;20262;-67
2023/04/17 10:14:21;;;;;;;4.87;3.97;;;;;;;;;;6274769;28;20293;-67
2023/04/17 10:17:23;;;;;;;4.10;3.73;;;;;;;;;;6298952;28;20213;-67
2023/04/17 10:20:24;;;;;;;4.50;4.10;;;;;;;;;;6312390;28;20190;-68
2023/04/17 10:23:35;;;;;;;4.10;3.80;;;;;;;;;;6314502;28;20185;-67
2023/04/17 10:26:36;;;;;;;3.90;3.60;;;;;;;;;;6294107;28;20193;-67
2023/04/17 10:29:57;;;;;;;4.33;4.03;;;;;;;;;;6281120;28;20311;-67
2023/04/17 10:33:20;;;;;;;4.33;3.93;;;;;;;;;;6303061;28;20185;-68
2023/04/17 10:36:40;;;;;;;4.20;3.83;;;;;;;;;;6320547;28;20246;-67
2023/04/17 10:40:01;;;;;;;4.30;3.93;;;;;;;;;;6309430;28;20186;-67
2023/04/17 10:43:13;;;;;;;4.53;4.13;;;;;;;;;;6322539;28;20194;-68
2023/04/17 10:46:14;;;;;;;4.20;3.77;;;;;;;;;;6287901;28;20230;-67
2023/04/17 10:49:16;;;;;;;4.50;4.10;;;;;;;;;;6292772;28;20217;-68
2023/04/17 10:52:33;;;;;;;4.20;3.80;;;;;;;;;;6299340;28;20194;-68
2023/04/17 10:55:46;;;;;;;4.20;3.83;;;;;;;;;;6297407;28;20221;-67
2023/04/17 10:59:00;;;;;;;4.87;4.47;;;;;;;;;;6289779;28;20226;-67
2023/04/17 11:02:03;;;;;;;4.57;4.17;;;;;;;;;;6311950;28;20204;-68
2023/04/17 11:05:07;;;;;;;4.57;4.17;;;;;;;;;;6283362;28;20248;-67
2023/04/17 11:08:09;;;;;;;5.40;4.60;;;;;;;;;;6303943;28;20280;-67
2023/04/17 11:11:13;;;;;;;5.10;4.60;;;;;;;;;;6295243;28;20189;-68
2023/04/17 11:14:15;;;;;;;5.23;4.83;;;;;;;;;;6278466;28;20221;-67
2023/04/17 11:17:16;;;;;;;4.70;4.30;;;;;;;;;;6313609;28;20217;-67
2023/04/17 11:20:22;;;;;;;6.03;5.40;;;;;;;;;;6318611;28;20181;-67
2023/04/17 11:23:23;;;;;;;5.60;5.10;;;;;;;;;;6307424;28;20189;-65
2023/04/17 11:26:24;;;;;;;5.77;5.27;;;;;;;;;;6307460;28;20200;-65
2023/04/17 11:29:25;;;;;;;6.27;5.67;;;;;;;;;;6279278;28;20224;-65
2023/04/17 11:32:26;;;;;;;6.50;5.90;;;;;;;;;;6300392;28;20195;-66
2023/04/17 11:35:29;;;;;;;6.17;5.57;;;;;;;;;;6321679;28;20243;-65
2023/04/17 11:38:30;;;;;;;6.40;5.80;;;;;;;;;;6303643;28;20221;-65
2023/04/17 11:41:35;;;;;;;6.03;5.53;;;;;;;;;;6320561;28;20196;-65
2023/04/17 11:44:43;;;;;;;6.60;6.00;;;;;;;;;;6302501;28;20187;-65
2023/04/17 11:47:46;;;;;;;6.43;5.83;;;;;;;;;;6313756;28;20201;-66
2023/04/17 11:50:47;;;;;;;6.37;5.87;;;;;;;;;;6306957;28;20193;-66
2023/04/17 11:53:49;;;;;;;6.33;5.83;;;;;;;;;;6306118;28;20202;-66
2023/04/17 11:57:00;;;;;;;6.67;6.10;;;;;;;;;;6318976;28;20228;-66
2023/04/17 12:00:11;;;;;;;6.57;5.87;;;;;;;;;;6295819;28;20279;-66
2023/04/17 12:03:31;;;;;;;6.60;6.00;;;;;;;;;;6290222;28;20205;-66
2023/04/17 12:06:36;;;;;;;7.27;6.57;;;;;;;;;;6320673;28;20199;-64
2023/04/17 12:09:37;;;;;;;6.37;5.77;;;;;;;;;;6312142;28;20186;-64
2023/04/17 12:12:38;;;;;;;6.57;5.90;;;;;;;;;;6280396;28;20196;-64
2023/04/17 12:15:39;;;;;;;6.27;5.70;;;;;;;;;;6277241;28;20209;-64
2023/04/17 12:18:40;;;;;;;6.13;5.53;;;;;;;;;;6316904;28;20187;-64
2023/04/17 12:21:42;;;;;;;6.10;5.37;;;13.00;65.00;;;;;;6319516;28;20193;-67
2023/04/17 12:24:43;;;;;;;5.53;5.13;;;21.70;36.90;;;;;;6279446;28;20194;-67
2023/04/17 12:27:44;;;;;;;6.10;5.60;;;23.20;34.40;;;;;;6292056;28;20228;-65
2023/04/17 12:30:44;;;;;;;6.13;5.63;;;24.20;34.10;;;;;;6277189;28;20194;-65
2023/04/17 12:33:46;;;;;;;7.30;6.70;;;24.80;33.40;;;;;;6291561;28;20302;-65
2023/04/17 12:36:49;;;;;;;5.73;5.23;;;24.90;32.00;;;;;;6293420;28;20226;-65
2023/04/17 12:39:50;;;;;;;5.60;5.17;;;24.30;33.90;;;;;;6262967;28;20189;-65
2023/04/17 12:42:50;;;;;;;6.20;5.70;;;26.10;33.10;;;;;;6284509;28;20188;-66
2023/04/17 12:45:52;;;;;;;5.50;5.10;;;25.50;32.30;;;;;;6275591;28;20212;-65
2023/04/17 12:48:57;;;;;;;6.10;5.60;;;26.20;31.40;;;;;;6295339;28;20185;-65
2023/04/17 12:51:58;;;;;;;5.70;5.20;;;25.70;31.50;;;;;;6258528;28;20289;-66
2023/04/17 12:54:59;;;;;;;6.70;6.10;;;25.40;31.70;;;;;;6279122;28;20195;-66
2023/04/17 12:58:00;;;;;;;6.37;5.87;;;25.40;31.30;;;;;;6284671;28;20207;-66
2023/04/17 13:01:01;;;;;;;6.53;6.03;;;24.80;33.30;;;;;;6266862;28;20197;-65
2023/04/17 13:04:02;;;;;;;6.43;5.40;;;25.40;33.00;;;;;;6261875;28;20197;-66
2023/04/17 13:07:03;;;;;;;6.03;5.53;;;27.10;31.70;;;;;;6260048;28;20213;-66
2023/04/17 13:10:04;;;;;;;6.07;5.47;;;28.90;28.70;;;;;;6280341;28;20193;-66
2023/04/17 13:13:04;;;;;;;5.30;4.90;;;29.70;27.10;;;;;;6264676;28;20223;-66
2023/04/17 13:16:06;;;;;;;5.90;5.40;;;30.00;27.60;;;;;;6278132;28;20189;-65
2023/04/17 13:19:06;;;;;;;5.60;5.20;;;29.20;27.80;;;;;;6289323;28;20284;-65
2023/04/17 13:22:07;;;;;;;5.73;5.20;;;27.40;28.60;;;;;;6260214;28;20200;-65
2023/04/17 13:25:08;;;;;;;6.10;5.30;;;26.30;30.10;;;;;;6277594;28;20250;-65
2023/04/17 13:28:09;;;;;;;5.43;5.03;;;27.00;30.30;;;;;;6280283;28;20251;-65
2023/04/17 13:31:10;;;;;;;5.00;4.63;;;26.60;28.60;;;;;;6283479;28;20189;-66
2023/04/17 13:34:11;;;;;;;5.20;4.80;;;24.90;31.20;;;;;;6278310;28;20259;-66
2023/04/17 13:37:13;;;;;;;5.40;5.00;;;24.40;31.60;;;;;;6272792;28;20200;-66
2023/04/17 13:40:14;;;;;;;5.83;5.43;;;24.40;31.60;;;;;;6270753;28;20197;-66
2023/04/17 13:43:15;;;;;;;5.67;5.27;;;23.90;33.10;;;;;;6243094;28;20221;-66
2023/04/17 13:46:16;;;;;;;5.33;4.83;;;23.60;32.40;;;;;;6265284;28;20212;-66
2023/04/17 13:49:16;;;;;;;6.30;5.80;;;23.20;33.30;;;;;;6272324;28;20256;-66
2023/04/17 13:52:17;;;;;;;4.97;4.50;;;23.00;34.10;;;;;;6273697;28;20185;-66
2023/04/17 13:55:18;;;;;;;5.07;4.67;;;23.50;33.70;;;;;;6266282;28;20181;-66
2023/04/17 13:58:19;;;;;;;5.53;5.13;;;24.40;32.20;;;;;;6265335;28;20194;-66
2023/04/17 14:01:20;;;;;;;5.13;4.73;;;25.90;30.80;;;;;;6267304;28;20237;-66
2023/04/17 14:04:20;;;;;;;5.43;4.93;;;26.20;30.40;;;;;;6265357;28;20230;-66
2023/04/17 14:07:21;;;;;;;6.67;4.80;;;27.40;28.20;;;;;;6280011;28;20275;-66
2023/04/17 14:10:22;;;;;;;4.47;4.17;;;27.10;28.90;;;;;;6293742;28;20192;-66
2023/04/17 14:13:22;;;;;;;4.47;4.17;;;27.40;28.90;;;;;;6254691;28;20335;-67
2023/04/17 14:16:23;;;;;;;4.63;4.33;;;27.90;28.90;;;;;;6277609;28;20197;-66
2023/04/17 14:19:24;;;;;;;4.30;4.00;;;28.60;27.60;;;;;;6280128;28;20201;-66
2023/04/17 14:22:25;;;;;;;4.30;4.00;;;28.60;28.20;;;;;;6278098;28;20216;-67
2023/04/17 14:25:25;;;;;;;3.90;3.60;;;27.60;28.60;;;;;;6260643;28;20198;-67
2023/04/17 14:28:26;;;;;;;4.37;4.07;;;26.10;29.50;;;;;;6271729;28;20192;-66
2023/04/17 14:31:27;;;;;;;4.63;4.23;;;26.00;29.40;;;;;;6276567;28;20190;-66
2023/04/17 14:34:28;;;;;;;4.43;4.03;;;25.80;30.80;;;;;;6263019;28;20225;-67
2023/04/17 14:37:29;;;;;;;4.20;3.80;;;26.00;29.70;;;;;;6273431;28;20194;-67
2023/04/17 14:40:30;;;;;;;4.33;3.93;;;25.40;30.80;;;;;;6277023;28;20193;-67
2023/04/17 14:43:30;;;;;;;3.90;3.60;;;25.00;30.70;;;;;;6293094;28;20295;-67
2023/04/17 14:46:31;;;;;;;4.17;3.77;;;25.00;31.10;;;;;;6266581;28;20251;-67
2023/04/17 14:49:32;;;;;;;3.97;3.67;;;25.40;30.20;;;;;;6274260;28;20194;-67
2023/04/17 14:52:32;;;;;;;3.83;3.53;;;25.90;29.70;;;;;;6266134;28;20189;-67
2023/04/17 14:55:35;;;;;;;3.83;3.53;;;25.50;29.20;;;;;;6260622;28;20206;-67
2023/04/17 14:58:36;;;;;;;4.03;3.73;;;25.40;30.00;;;;;;6279672;28;20189;-67
2023/04/17 15:01:36;;;;;;;3.90;3.60;;;25.30;30.90;;;;;;6289280;28;20192;-67
2023/04/17 15:04:39;;;;;;;3.90;3.50;;;26.20;29.40;;;;;;6264032;28;20191;-66
2023/04/17 15:07:40;;;;;;;3.90;3.60;;;25.80;29.80;;;;;;6308887;28;20271;-67
2023/04/17 15:10:40;;;;;;;3.50;3.30;;;26.00;30.20;;;;;;6281578;28;20193;-67
2023/04/17 15:13:41;;;;;;;4.17;3.77;;;26.70;28.60;;;;;;6265435;28;20185;-67
2023/04/17 15:16:42;;;;;;;3.50;3.20;;;27.40;28.50;;;;;;6265073;28;20227;-67
2023/04/17 15:19:42;;;;;;;3.80;3.43;;;28.00;28.50;;;;;;6283074;28;20199;-67
2023/04/17 15:22:44;;;;;;;3.60;3.30;;;27.90;27.90;;;;;;6292456;28;20213;-67
2023/04/17 15:25:45;;;;;;;3.40;3.13;;;27.30;28.30;;;;;;6287568;28;20196;-67
2023/04/17 15:28:45;;;;;;;3.20;2.90;;;26.20;29.10;;;;;;6272204;28;20326;-67
2023/04/17 15:31:46;;;;;;;4.20;3.90;;;25.40;29.80;;;;;;6263619;28;20189;-67
2023/04/17 15:34:47;;;;;;;3.90;3.60;;;23.90;32.20;;;;;;6283240;28;20301;-66
2023/04/17 15:37:48;;;;;;;3.80;3.50;;;23.50;32.10;;;;;;6264554;28;20211;-67
2023/04/17 15:40:48;;;;;;;3.57;3.30;;;22.70;32.40;;;;;;6289398;28;20280;-66
2023/04/17 15:43:49;;;;;;;3.40;3.10;;;22.40;33.60;;;;;;6283593;28;20201;-66
2023/04/17 15:46:50;;;;;;;3.23;2.83;;;21.70;33.60;;;;;;6279128;28;20248;-66
2023/04/17 15:49:50;;;;;;;4.10;3.13;;;21.70;34.00;;;;;;6255612;28;20185;-64
2023/04/17 15:52:51;;;;;;;4.07;3.53;;;21.50;34.30;;;;;;6272164;28;20182;-66
2023/04/17 15:55:52;;;;;;;3.47;3.17;;;21.50;34.90;;;;;;6280884;28;20235;-65
2023/04/17 15:58:52;;;;;;;3.30;3.10;;;20.90;33.40;;;;;;6256906;28;20225;-66
2023/04/17 16:01:53;;;;;;;3.60;3.30;;;20.80;35.50;;;;;;6280458;28;20197;-65
2023/04/17 16:04:54;;;;;;;4.23;3.33;;;20.70;35.20;;;;;;6279341;28;20268;-65
2023/04/17 16:07:54;;;;;;;3.90;3.60;;;20.70;35.60;;;;;;6284483;28;20284;-65
2023/04/17 16:10:55;;;;;;;4.23;3.90;;;20.20;36.00;;;;;;6277521;28;20197;-65
2023/04/17 16:13:56;;;;;;;4.13;3.83;;;19.70;36.60;;;;;;6284740;28;20206;-65
2023/04/17 16:16:58;;;;;;;4.23;3.67;;;19.40;38.00;;;;;;6286389;28;20188;-66
2023/04/17 16:19:59;;;;;;;3.90;3.60;;;19.30;38.60;;;;;;6271113;28;20205;-66
2023/04/17 16:23:00;;;;;;;4.40;4.10;;;19.50;38.70;;;;;;6282290;28;20204;-65
2023/04/17 16:26:01;;;;;;;4.60;4.20;;;19.50;37.50;;;;;;6262437;28;20214;-64
2023/04/17 16:29:01;;;;;;;4.37;3.90;;;19.30;37.90;;;;;;6285014;28;20188;-63
2023/04/17 16:32:02;;;;;;;4.30;4.00;;;19.10;39.30;;;;;;6297970;28;20214;-64
2023/04/17 16:35:03;;;;;;;4.77;4.37;;;18.80;38.90;;;;;;6270755;28;20255;-64
2023/04/17 16:38:04;;;;;;;4.17;3.77;;;18.60;40.10;;;;;;6269136;28;20197;-63
2023/04/17 16:41:04;;;;;;;5.10;4.13;;;18.40;39.80;;;;;;6271824;28;20202;-63
2023/04/17 16:44:05;;;;;;;5.43;4.70;;;18.10;40.40;;;;;;6286012;28;20230;-62
2023/04/17 16:47:06;;;;;;;4.37;4.07;;;17.80;40.90;;;;;;6277410;28;20225;-64
2023/04/17 16:50:07;;;;;;;4.43;4.03;;;17.50;41.00;;;;;;6274305;28;20193;-63
2023/04/17 16:53:08;;;;;;;4.70;4.30;;;17.50;41.20;;;;;;6264359;28;20189;-63
2023/04/17 16:56:09;;;;;;;5.37;4.13;;;17.20;42.20;;;;;;6278324;28;20209;-63
2023/04/17 16:59:10;;;;;;;5.03;4.63;;;16.90;42.60;;;;;;6262396;28;20220;-63
2023/04/17 17:02:11;;;;;;;4.50;4.10;;;;;;;;;;6282000;28;20197;-62
2023/04/17 17:05:14;;;;;;;4.50;4.10;;;16.70;43.60;;;;;;6311322;28;20193;-63
2023/04/17 17:08:14;;;;;;;4.87;4.47;;;16.10;44.30;;;;;;6256940;28;20225;-63
2023/04/17 17:11:16;;;;;;;5.00;4.60;;;15.90;44.00;;;;;;6294995;28;20188;-66
2023/04/17 17:14:17;;;;;;;4.97;4.47;;;15.60;45.30;;;;;;6296258;28;20238;-65
2023/04/17 17:17:18;;;;;;;5.10;4.70;;;15.50;45.00;;;;;;6278450;28;20204;-66
2023/04/17 17:20:19;;;;;;;5.17;4.77;;;15.40;45.50;;;;;;6273246;28;20323;-66
2023/04/17 17:23:20;;;;;;;6.03;5.43;;;;;;;;;;6286581;28;20202;-67
2023/04/17 17:26:20;;;;;;;5.97;5.47;;;15.10;46.70;;;;;;6295744;28;20217;-68